Aérodrome :
LOGIN :

S'inscrire | Disclaimer

   EN    FR    IT 

 










Légende :    VFR   VFR Marginal   IFR   IFR Intensif   IFR Très Intensif
Visi : 
Plafond : 
>= 8 km
>= 3000ft
5 à 8 km
1000 à 3000 ft
1500m à 5 km
500 à 1000 ft
800 à 1500m
200 à 500 ft
< 800m
< 200 ft
Symboles :   Orages  Brouillard  Fortes neiges  Fortes précipitations  Vent > 20 kt
SIGMETs :   Divers  Orages  Givrage  Turbulence  Onde Orograph.  Cendres Volcan.







- Altitude de l'aérodrome : 16 ft
- Code IATA : SDR


LEXJ - Santander Cantabria

DERNIER METAR :
  • 150300Z AUTO VRB02KT 9999 FEW050 SCT070 11/09 Q1019

METARs EXPIRÉS :
  • 150230Z AUTO 21004KT 130V260 9000 BKN044 BKN055 12/09 Q1020
  • 150200Z AUTO 25002KT 9999 BKN035/// OVC043/// 11/09 Q1020
  • 150130Z AUTO VRB02KT 9000 BKN036/// OVC043/// 11/08 Q1020
  • 150100Z AUTO VRB01KT 9000 FEW036/// SCT044/// BKN050/// 11/09 Q1020
  • 150030Z AUTO 00000KT 9000 SCT043 SCT066 11/08 Q1020

TAF TAF LEXJ
Valide du 15 à 03h jusqu'au 16 à 03h UTC


150200Z 1503/1603 19009KT 9999 SCT040 TX20/1514Z TN09/1503Z
TEMPO 1506/1518 19015G30KT
BECMG 1517/1521 27010KT
PROB40
TEMPO 1506/1509 RA
PROB40
TEMPO 1521/1603 3000 -RA BKN014
Pas de NOTAMs connus pour ce terrain.



MET'MAP, la Météo Aéronautique d'un coup d'oeil ! - Copyright ORBIFLY Décembre 2007 - Disclaimer

ORBIFLY MET'MAP TEAM :

Programmation & Développement : Alexandra Zaïnal
Conception & Développement : Baudouin d'Aumeries
Co-Programmation & Développement : Marc-Olivier Méhu
Soutien technique & logistique : Manuel Goepfert

Contact : metmap@orbifly.com




SOURCES & CREDITS :

   NOAA